Авиационная погода в Самаре

Регион: 
Погода METAR: 
UWWW 282200Z 33003MPS CAVOK 10/03 Q1017 R33/CLRD60 NOSIG RMK QFE752/1003
Время наблюдения
2022-06-28T22:00:00Z
Температура C
10.0
Точка росы
3.0
Направление ветра
330
Скорость ветра (узлы)
6
Метео видимость
6.21
Облачность
CAVOK
Нижняя граница облачности (футы)
Явления погоды
Условия полета
VFR
Аэропорт подробнее: